TAF and METAR

METAR for Brno-Tuřany Airport

LKTB 311200Z 34016KT 9999 BKN042 12/07 Q1015 NOSIG
Report created 31. mai 14:00
wind 16 knots from NNW (340°) visibility > 10km broken clouds (~75% cover) at 4200 feet Temperature 12° with dewpoint at 7° (Humidity 71.47%) Pressure 1015 hPa no significant weather change expected the next couple of hours

TAF for Brno-Tuřany Airport

TAF LKTB 311100Z 3112/0118 34008KT 9999 BKN040 TEMPO 3112/3115 35012G22KT 7000 -RA BKN026 BECMG 3118/3121 SCT040 TEMPO 0112/0118 34012G22KT
Report created 31. mai 13:00

between 31. mai 14:00 - 1. mai 20:00

wind 8 knots from NNW (340°) visibility > 10km broken clouds (~75% cover) at 4000 feet

temporarily between 31. mai 14:00 - 31. mai 17:00

wind 12 knots from N (350°) with gusts up to 22 knots visibility 7000 meters light rain broken clouds (~75% cover) at 2600 feet

becoming between 31. mai 20:00 - 31. mai 23:00

scattered clouds (~50% cover) at 4000 feet

temporarily between 1. mai 14:00 - 1. mai 20:00

wind 12 knots from NNW (340°) with gusts up to 22 knots
Brno-Tuřany Airport in Czech Republic at 246m

Latest 5 airports